Time;durP1;ratioP1;P1;durP2;ratioP2;P2;SDS_P1;SDS_P2;PMS_P1;PMS_P2;Temp;Humidity;BMP_temperature;BMP_pressure;BME280_temperature;BME280_humidity;BME280_pressure;Samples;Min_cycle;Max_cycle;Signal;HPM_P1;HPM_P2
2023/07/30 00:01:49;;;;;;;1.15;0.65;;;22.60;65.80;;;;;;5112820;27;20303;-76
2023/07/30 00:04:15;;;;;;;;;;;22.60;66.30;;;;;;5097093;28;20518;-85
2023/07/30 00:06:41;;;;;;;0.47;0.40;;;22.60;66.00;;;;;;5113372;28;19915;-86
2023/07/30 00:09:07;;;;;;;0.85;0.60;;;22.50;66.30;;;;;;5114505;28;20032;-87
2023/07/30 00:11:33;;;;;;;;;;;22.50;66.30;;;;;;5096491;28;20020;-86
2023/07/30 00:13:59;;;;;;;1.40;0.88;;;22.50;66.20;;;;;;5096115;28;20374;-86
2023/07/30 00:16:44;;;;;;;;;;;22.40;66.30;;;;;;5096598;28;20028;-84
2023/07/30 00:19:10;;;;;;;1.63;1.20;;;22.40;66.30;;;;;;5113391;28;20015;-78
2023/07/30 00:21:36;;;;;;;2.53;1.58;;;22.30;66.60;;;;;;5096028;28;20023;-76
2023/07/30 00:24:02;;;;;;;;;;;22.30;66.60;;;;;;5113432;28;20032;-77
2023/07/30 00:26:29;;;;;;;0.93;0.70;;;22.30;65.90;;;;;;5112512;28;19935;-81
2023/07/30 00:28:55;;;;;;;0.68;0.52;;;22.30;66.60;;;;;;5113382;28;20054;-76
2023/07/30 00:31:21;;;;;;;;;;;22.30;66.80;;;;;;5112590;28;20031;-84
2023/07/30 00:33:47;;;;;;;3.05;1.23;;;22.30;66.60;;;;;;5112774;28;19992;-77
2023/07/30 00:36:13;;;;;;;;;;;22.30;66.90;;;;;;5112852;28;20031;-77
2023/07/30 00:38:39;;;;;;;1.05;0.65;;;22.20;67.10;;;;;;5112850;27;20514;-76
2023/07/30 00:41:05;;;;;;;;;;;22.20;67.10;;;;;;5095942;28;20024;-85
2023/07/30 00:43:31;;;;;;;0.75;0.75;;;22.20;67.10;;;;;;5096046;28;19920;-85
2023/07/30 00:45:57;;;;;;;;;;;22.20;67.10;;;;;;5114140;28;20403;-77
2023/07/30 00:48:23;;;;;;;0.85;0.52;;;22.20;67.20;;;;;;5112900;28;19920;-85
2023/07/30 00:50:49;;;;;;;;;;;22.00;67.50;;;;;;5113016;28;20057;-83
2023/07/30 00:53:17;;;;;;;1.25;0.63;;;22.00;67.50;;;;;;5112507;28;19919;-85
2023/07/30 00:55:43;;;;;;;0.38;0.38;;;22.00;67.10;;;;;;5112204;28;20042;-85
2023/07/30 00:58:10;;;;;;;0.60;0.43;;;22.00;67.80;;;;;;5112990;28;20468;-85
2023/07/30 01:00:36;;;;;;;1.50;0.95;;;22.00;67.90;;;;;;5112160;28;20115;-85
2023/07/30 01:03:03;;;;;;;;;;;22.00;68.00;;;;;;5114260;28;20061;-85
2023/07/30 01:05:29;;;;;;;0.80;0.68;;;22.00;67.70;;;;;;5112267;28;19964;-85
2023/07/30 01:07:55;;;;;;;1.60;1.00;;;22.00;67.90;;;;;;5112071;28;20035;-77
2023/07/30 01:24:48;;;;;;;0.93;0.60;;;21.90;68.10;;;;;;5113930;28;20523;-85
2023/07/30 01:27:24;;;;;;;0.47;0.47;;;21.90;68.20;;;;;;5113155;28;20042;-77
2023/07/30 01:29:56;;;;;;;;;;;21.90;68.50;;;;;;5095486;28;20059;-76
2023/07/30 01:32:27;;;;;;;6.35;1.10;;;21.80;68.40;;;;;;5111537;28;19920;-86
2023/07/30 01:34:56;;;;;;;1.45;0.80;;;21.70;68.40;;;;;;5112368;28;20061;-77
2023/07/30 01:37:22;;;;;;;1.38;0.80;;;21.70;68.70;;;;;;5094769;28;20031;-77
2023/07/30 01:39:50;;;;;;;1.77;1.33;;;21.60;68.70;;;;;;5112225;28;20032;-77
2023/07/30 01:42:17;;;;;;;1.85;1.15;;;21.60;68.60;;;;;;5094443;28;20427;-77
2023/07/30 01:44:43;;;;;;;0.50;0.32;;;21.60;68.00;;;;;;5097192;28;20028;-77
2023/07/30 01:47:09;;;;;;;1.05;0.90;;;21.60;68.60;;;;;;5116107;28;20107;-86
2023/07/30 01:49:35;;;;;;;1.10;1.00;;;21.60;68.60;;;;;;5099100;28;20545;-77
2023/07/30 01:52:01;;;;;;;;;;;21.60;68.50;;;;;;5099068;28;20389;-86
2023/07/30 01:54:27;;;;;;;0.98;0.60;;;21.60;68.40;;;;;;5116205;28;20037;-77
2023/07/30 01:56:53;;;;;;;;;;;21.70;68.60;;;;;;5098847;28;20123;-77
2023/07/30 01:59:20;;;;;;;1.08;0.70;;;21.60;68.40;;;;;;5116101;28;19919;-84
2023/07/30 02:01:46;;;;;;;0.63;0.40;;;21.60;68.50;;;;;;5116609;28;20028;-86
2023/07/30 02:04:12;;;;;;;;;;;21.70;68.60;;;;;;5116050;28;20035;-86
2023/07/30 02:06:38;;;;;;;2.72;0.70;;;21.60;68.40;;;;;;5115618;28;19915;-77
2023/07/30 02:09:04;;;;;;;;;;;21.60;68.60;;;;;;5099507;28;20032;-86
2023/07/30 02:11:30;;;;;;;1.92;0.68;;;21.60;68.60;;;;;;5115650;28;20220;-83
2023/07/30 02:13:55;;;;;;;;;;;21.50;68.80;;;;;;5098982;28;20028;-76
2023/07/30 02:16:22;;;;;;;1.10;0.60;;;21.50;68.90;;;;;;5116393;28;20015;-85
2023/07/30 02:18:47;;;;;;;;;;;21.50;68.90;;;;;;5099457;28;20043;-77
2023/07/30 02:21:14;;;;;;;0.65;0.50;;;21.40;68.90;;;;;;5115080;28;19918;-81
2023/07/30 02:23:40;;;;;;;0.65;0.40;;;21.40;69.00;;;;;;5098350;28;20480;-76
2023/07/30 02:26:06;;;;;;;2.08;1.00;;;21.50;68.90;;;;;;5114941;28;20019;-76
2023/07/30 02:28:32;;;;;;;;;;;21.50;68.90;;;;;;5115987;28;20032;-85
2023/07/30 02:30:58;;;;;;;0.45;0.43;;;21.40;69.00;;;;;;5115903;28;19916;-76
2023/07/30 02:33:24;;;;;;;;;;;21.40;68.90;;;;;;5115693;28;20500;-77
2023/07/30 02:35:50;;;;;;;2.17;0.80;;;21.40;69.00;;;;;;5114555;28;19918;-77
2023/07/30 02:38:15;;;;;;;;;;;21.30;68.90;;;;;;5098698;28;20112;-86
2023/07/30 02:40:42;;;;;;;1.10;1.00;;;21.30;69.20;;;;;;5114885;28;19915;-77
2023/07/30 02:43:07;;;;;;;;;;;21.20;69.20;;;;;;5098270;28;20039;-87
2023/07/30 02:45:33;;;;;;;1.25;0.80;;;21.20;69.20;;;;;;5114954;28;20416;-84
2023/07/30 02:47:59;;;;;;;;;;;21.10;69.50;;;;;;5098796;28;20039;-85
2023/07/30 02:50:25;;;;;;;0.57;0.40;;;21.10;69.40;;;;;;5116212;27;19956;-84
2023/07/30 02:52:51;;;;;;;;;;;21.10;69.50;;;;;;5099059;28;20118;-77
2023/07/30 02:55:18;;;;;;;0.40;0.32;;;21.10;69.20;;;;;;5114207;28;19956;-84
2023/07/30 02:57:44;;;;;;;1.48;0.73;;;21.20;69.30;;;;;;5115136;28;20039;-85
2023/07/30 03:00:10;;;;;;;;;;;21.20;69.30;;;;;;5114983;28;20077;-77
2023/07/30 03:02:36;;;;;;;0.93;0.47;;;21.10;68.50;;;;;;5114699;28;20018;-77
2023/07/30 03:05:03;;;;;;;;;;;21.10;69.00;;;;;;5115205;28;20038;-77
2023/07/30 03:07:29;;;;;;;0.70;0.57;;;21.10;69.20;;;;;;5114547;28;20014;-85
2023/07/30 03:09:55;;;;;;;;;;;21.10;69.20;;;;;;5115355;28;20024;-78
2023/07/30 03:12:21;;;;;;;0.47;0.40;;;21.10;69.10;;;;;;5113961;28;20061;-77
2023/07/30 03:14:46;;;;;;;;;;;21.10;69.10;;;;;;5115126;28;20031;-76
2023/07/30 03:17:13;;;;;;;1.05;0.88;;;21.10;69.30;;;;;;5115143;28;19924;-76
2023/07/30 03:19:38;;;;;;;;;;;21.10;69.40;;;;;;5115912;28;20035;-77
2023/07/30 03:22:05;;;;;;;1.38;1.17;;;21.00;69.50;;;;;;5115315;28;20368;-86
2023/07/30 03:24:30;;;;;;;;;;;21.00;69.50;;;;;;5114965;28;20027;-80
2023/07/30 03:26:57;;;;;;;0.20;0.20;;;21.10;69.50;;;;;;5113859;28;20287;-86
2023/07/30 03:29:22;;;;;;;;;;;21.10;69.60;;;;;;5114967;28;20488;-80
2023/07/30 03:31:48;;;;;;;1.48;0.60;;;21.10;69.70;;;;;;5096540;28;19918;-86
2023/07/30 03:34:14;;;;;;;;;;;21.10;69.60;;;;;;5114714;28;20518;-77
2023/07/30 03:36:40;;;;;;;0.60;0.43;;;21.20;69.60;;;;;;5096951;28;19915;-76
2023/07/30 03:39:06;;;;;;;;;;;21.20;69.60;;;;;;5114911;28;20027;-86
2023/07/30 03:41:32;;;;;;;0.35;0.35;;;21.20;69.60;;;;;;5113516;28;19937;-77
2023/07/30 03:43:58;;;;;;;;;;;21.20;69.60;;;;;;5115478;28;20517;-82
2023/07/30 03:46:24;;;;;;;0.68;0.60;;;21.10;69.60;;;;;;5113541;28;19912;-77
2023/07/30 03:48:50;;;;;;;0.77;0.50;;;21.20;70.00;;;;;;5114079;28;20036;-77
2023/07/30 03:51:16;;;;;;;;;;;21.20;70.30;;;;;;5113963;28;20583;-77
2023/07/30 03:53:43;;;;;;;1.13;0.75;;;21.20;70.10;;;;;;5114013;28;19916;-86
2023/07/30 03:56:09;;;;;;;1.77;0.82;;;21.10;70.30;;;;;;5096206;28;20036;-77
2023/07/30 03:58:35;;;;;;;;;;;21.20;70.50;;;;;;5114219;28;20031;-85
2023/07/30 04:01:02;;;;;;;0.50;0.30;;;21.20;70.30;;;;;;5113352;28;19960;-77
2023/07/30 04:03:28;;;;;;;1.08;0.50;;;21.20;69.20;;;;;;5096554;28;20496;-77
2023/07/30 04:05:54;;;;;;;;;;;21.20;69.90;;;;;;5113349;28;20027;-77
2023/07/30 04:08:20;;;;;;;0.60;0.40;;;21.20;69.80;;;;;;5112807;27;19922;-86
2023/07/30 04:10:46;;;;;;;0.75;0.60;;;21.30;70.30;;;;;;5113245;28;20109;-77
2023/07/30 04:13:13;;;;;;;;;;;21.30;71.40;;;;;;5113808;28;20031;-77
2023/07/30 04:15:39;;;;;;;0.63;0.40;;;21.30;70.60;;;;;;5112694;28;19922;-80
2023/07/30 04:18:05;;;;;;;;;;;21.30;71.00;;;;;;5096583;28;20035;-78
2023/07/30 04:20:31;;;;;;;0.93;0.73;;;21.30;72.00;;;;;;5112216;28;20295;-79
2023/07/30 04:22:57;;;;;;;1.30;0.73;;;21.20;73.00;;;;;;5113992;28;20032;-77
2023/07/30 04:25:23;;;;;;;1.55;0.85;;;21.10;74.80;;;;;;5112130;28;20046;-77
2023/07/30 04:27:49;;;;;;;;;;;21.10;76.00;;;;;;5113403;28;20461;-77
2023/07/30 04:30:21;;;;;;;0.85;0.70;;;20.80;79.10;;;;;;5112042;27;20010;-78
2023/07/30 04:35:31;;;;;;;0.20;0.20;;;20.40;85.70;;;;;;5111451;28;20124;-78
2023/07/30 04:37:59;;;;;;;;;;;20.30;86.90;;;;;;5114445;28;20084;-78
2023/07/30 04:40:25;;;;;;;0.13;0.13;;;20.20;85.70;;;;;;5113202;28;19911;-80
2023/07/30 04:42:51;;;;;;;;;;;20.20;87.40;;;;;;5112836;28;20070;-83
2023/07/30 04:45:17;;;;;;;0.28;0.25;;;20.20;86.70;;;;;;5111792;28;19912;-75
2023/07/30 04:47:43;;;;;;;0.10;0.10;;;20.20;87.30;;;;;;5113873;28;20096;-75
2023/07/30 04:50:09;;;;;;;;;;;20.20;88.20;;;;;;5113499;28;20031;-75
2023/07/30 04:52:35;;;;;;;0.10;0.10;;;20.10;87.10;;;;;;5113353;28;19961;-75
2023/07/30 04:55:30;;;;;;;;;;;20.10;88.60;;;;;;5114059;28;20096;-75
2023/07/30 04:57:56;;;;;;;0.20;0.20;;;20.00;88.10;;;;;;5112034;28;19919;-82
2023/07/30 05:00:25;;;;;;;;;;;20.00;89.40;;;;;;5113952;28;20043;-83
2023/07/30 05:02:51;;;;;;;0.20;0.20;;;20.00;88.30;;;;;;5112196;28;20022;-74
2023/07/30 05:05:17;;;;;;;;;;;20.00;89.20;;;;;;5112570;28;20055;-83
2023/07/30 05:07:51;;;;;;;0.57;0.25;;;20.00;88.40;;;;;;5112126;28;19916;-76
2023/07/30 05:10:17;;;;;;;0.10;0.10;;;20.00;89.50;;;;;;5112729;28;20035;-77
2023/07/30 05:12:43;;;;;;;;;;;20.00;90.70;;;;;;5112836;28;20034;-75
2023/07/30 05:15:09;;;;;;;0.50;0.50;;;20.00;89.80;;;;;;5111475;28;19920;-83
2023/07/30 05:17:56;;;;;;;0.20;0.20;;;20.10;90.30;;;;;;5113083;28;20032;-76
2023/07/30 05:20:22;;;;;;;0.20;0.20;;;20.10;90.60;;;;;;5109494;28;20048;-81
2023/07/30 05:22:48;;;;;;;0.10;0.10;;;20.20;90.40;;;;;;5111992;28;20027;-76
2023/07/30 05:25:14;;;;;;;0.10;0.10;;;20.20;90.20;;;;;;5112561;28;20081;-77
2023/07/30 05:27:40;;;;;;;;;;;20.20;90.30;;;;;;5112865;28;20053;-82
2023/07/30 05:30:07;;;;;;;0.13;0.13;;;20.20;89.60;;;;;;5111645;28;19915;-76
2023/07/30 05:32:33;;;;;;;0.20;0.20;;;20.20;89.60;;;;;;5111587;28;20031;-75
2023/07/30 05:35:18;;;;;;;;;;;20.30;90.00;;;;;;5112435;28;20032;-84
2023/07/30 05:37:47;;;;;;;0.10;0.10;;;20.40;88.90;;;;;;5113902;28;20366;-84
2023/07/30 05:40:14;;;;;;;0.22;0.22;;;20.40;89.20;;;;;;5111653;28;20106;-84
2023/07/30 05:42:39;;;;;;;;;;;20.40;89.60;;;;;;5113740;28;20130;-83
2023/07/30 05:45:24;;;;;;;1.00;0.73;;;20.40;88.90;;;;;;5094319;28;19912;-76
2023/07/30 05:47:50;;;;;;;0.28;0.28;;;20.50;88.90;;;;;;5113513;28;20032;-75
2023/07/30 05:50:18;;;;;;;0.10;0.10;;;20.50;89.10;;;;;;5111604;28;20100;-83
2023/07/30 05:52:45;;;;;;;0.28;0.28;;;20.60;89.00;;;;;;5113465;28;20067;-82
2023/07/30 05:55:11;;;;;;;;;;;20.60;89.00;;;;;;5112830;28;20035;-82
2023/07/30 05:57:37;;;;;;;0.20;0.17;;;20.60;88.20;;;;;;5111512;28;19916;-79
2023/07/30 06:00:07;;;;;;;0.20;0.20;;;20.70;87.80;;;;;;5112264;28;20028;-77
2023/07/30 06:02:54;;;;;;;0.43;0.20;;;20.60;87.70;;;;;;5112168;28;20058;-80
2023/07/30 06:05:20;;;;;;;0.10;0.10;;;20.60;87.70;;;;;;5110973;28;20442;-82
2023/07/30 06:07:46;;;;;;;;;;;20.50;88.00;;;;;;5113205;28;20036;-81
2023/07/30 06:10:28;;;;;;;1.45;0.65;;;20.60;87.20;;;;;;5112144;28;19926;-77
2023/07/30 06:12:54;;;;;;;0.10;0.10;;;20.50;86.60;;;;;;5111241;28;20488;-76
2023/07/30 06:15:30;;;;;;;;;;;;;;;;;;;;;
2023/07/30 06:18:06;;;;;;;0.10;0.10;;;20.50;87.30;;;;;;5112788;28;20108;-79
2023/07/30 06:20:32;;;;;;;;;;;20.50;87.20;;;;;;5111418;28;20023;-80
2023/07/30 06:22:58;;;;;;;0.10;0.10;;;20.50;86.80;;;;;;5111225;28;19927;-81
2023/07/30 06:25:26;;;;;;;;;;;20.40;87.10;;;;;;5111684;28;20097;-80
2023/07/30 06:28:11;;;;;;;1.35;0.63;;;20.40;86.60;;;;;;5111451;28;19935;-77
2023/07/30 06:30:39;;;;;;;1.08;0.63;;;20.40;87.20;;;;;;5109090;28;20051;-76
2023/07/30 06:33:34;;;;;;;0.10;0.10;;;20.50;87.90;;;;;;5114546;28;20046;-75
2023/07/30 06:36:00;;;;;;;0.20;0.20;;;20.50;87.10;;;;;;5114443;28;20039;-77
2023/07/30 06:38:26;;;;;;;;;;;20.50;86.70;;;;;;5115396;28;20434;-80
2023/07/30 06:40:52;;;;;;;0.15;0.15;;;20.50;86.30;;;;;;5097361;28;19927;-76
2023/07/30 06:43:18;;;;;;;;;;;20.50;86.30;;;;;;5115233;28;20039;-81
2023/07/30 06:45:44;;;;;;;0.22;0.22;;;20.50;86.10;;;;;;5114204;28;19926;-77
2023/07/30 06:48:20;;;;;;;;;;;;;;;;;;;;;
2023/07/30 06:50:57;;;;;;;0.10;0.10;;;20.40;86.10;;;;;;5115392;28;19927;-78
2023/07/30 06:53:23;;;;;;;0.13;0.13;;;20.40;86.30;;;;;;5097417;28;20024;-77
2023/07/30 06:55:49;;;;;;;;;;;20.40;86.90;;;;;;5097380;28;20035;-77
2023/07/30 06:58:15;;;;;;;0.10;0.10;;;20.50;86.30;;;;;;5114602;28;19912;-75
2023/07/30 07:00:41;;;;;;;;;;;20.50;86.00;;;;;;5114411;28;20034;-78
2023/07/30 07:03:07;;;;;;;0.20;0.20;;;20.60;85.30;;;;;;5114119;28;19998;-81
2023/07/30 07:06:10;;;;;;;;;;;20.70;85.70;;;;;;5114365;28;20024;-77
2023/07/30 07:08:36;;;;;;;1.35;0.43;;;20.70;84.90;;;;;;5115444;28;19919;-81
2023/07/30 07:11:02;;;;;;;;;;;20.70;85.10;;;;;;5097173;28;20046;-77
2023/07/30 07:13:50;;;;;;;0.30;0.22;;;20.80;84.70;;;;;;5114513;28;20391;-77
2023/07/30 07:16:16;;;;;;;0.55;0.20;;;20.80;84.50;;;;;;5114133;28;20036;-83
2023/07/30 07:18:42;;;;;;;;;;;21.00;84.60;;;;;;5109361;28;20027;-83
2023/07/30 07:21:08;;;;;;;0.55;0.45;;;21.00;84.00;;;;;;5099491;28;19969;-81
2023/07/30 07:23:34;;;;;;;0.25;0.25;;;21.10;84.00;;;;;;5093889;28;20534;-77
2023/07/30 07:26:06;;;;;;;0.20;0.20;;;21.20;83.90;;;;;;5113447;28;20035;-81
2023/07/30 07:28:56;;;;;;;0.25;0.25;;;21.20;83.70;;;;;;5113766;28;20047;-80
2023/07/30 07:31:22;;;;;;;0.13;0.13;;;21.20;83.70;;;;;;5113088;28;20028;-74
2023/07/30 07:34:10;;;;;;;;;;;21.40;83.30;;;;;;5094038;28;20569;-80
2023/07/30 07:36:37;;;;;;;0.17;0.17;;;21.60;82.60;;;;;;5101442;28;19918;-77
2023/07/30 07:39:04;;;;;;;0.17;0.17;;;21.80;81.70;;;;;;5115062;28;20036;-77
2023/07/30 07:41:30;;;;;;;0.63;0.60;;;22.10;81.40;;;;;;5112899;28;20472;-78
2023/07/30 07:43:56;;;;;;;0.30;0.20;;;22.40;80.80;;;;;;5114210;28;20074;-78
2023/07/30 07:46:22;;;;;;;;;;;22.50;80.40;;;;;;5114488;28;20472;-76
2023/07/30 07:48:51;;;;;;;0.35;0.35;;;22.60;79.80;;;;;;5112082;28;20348;-77
2023/07/30 07:51:17;;;;;;;0.52;0.45;;;22.70;79.70;;;;;;5107095;28;20369;-74
2023/07/30 07:56:46;;;;;;;0.95;0.40;;;22.70;80.00;;;;;;5113583;27;20387;-75
2023/07/30 07:59:12;;;;;;;;;;;22.60;79.70;;;;;;5135504;27;20024;-75
2023/07/30 08:01:38;;;;;;;0.10;0.10;;;22.60;79.20;;;;;;5115616;27;19976;-75
2023/07/30 08:04:04;;;;;;;;;;;22.60;79.10;;;;;;5116823;27;20421;-74
2023/07/30 08:06:47;;;;;;;0.70;0.40;;;22.60;78.60;;;;;;5101034;28;19911;-74
2023/07/30 08:09:13;;;;;;;0.22;0.22;;;22.70;78.60;;;;;;5115933;27;20059;-74
2023/07/30 08:11:42;;;;;;;0.20;0.20;;;22.70;78.50;;;;;;5098831;27;20050;-75
2023/07/30 08:14:08;;;;;;;0.10;0.10;;;22.80;77.80;;;;;;5116218;27;20046;-73
2023/07/30 08:16:34;;;;;;;;;;;22.80;77.20;;;;;;5116182;27;20027;-73
2023/07/30 08:19:00;;;;;;;0.70;0.32;;;22.90;77.40;;;;;;5116209;27;19922;-73
2023/07/30 08:21:26;;;;;;;;;;;23.00;76.90;;;;;;5134215;27;20027;-79
2023/07/30 08:23:52;;;;;;;0.17;0.17;;;23.00;76.70;;;;;;5115597;27;19968;-74
2023/07/30 08:26:18;;;;;;;;;;;22.90;76.20;;;;;;5116180;27;20046;-74
2023/07/30 08:28:47;;;;;;;0.20;0.15;;;22.80;77.00;;;;;;5116102;27;20009;-78
2023/07/30 08:31:23;;;;;;;0.30;0.20;;;22.70;77.00;;;;;;5098405;27;20023;-76
2023/07/30 08:33:51;;;;;;;1.25;0.43;;;22.60;76.90;;;;;;5134244;27;20507;-80
2023/07/30 08:39:03;;;;;;;1.00;0.63;;;22.70;77.20;;;;;;5103434;27;20522;-81
2023/07/30 08:41:30;;;;;;;2.10;1.02;;;22.70;76.90;;;;;;5133463;27;20055;-79
2023/07/30 08:43:56;;;;;;;0.10;0.10;;;22.70;76.30;;;;;;5098548;27;20039;-82
2023/07/30 08:46:22;;;;;;;0.30;0.20;;;22.70;76.60;;;;;;5115337;27;20031;-82
2023/07/30 08:49:08;;;;;;;;;;;22.80;76.50;;;;;;5116114;27;20399;-79
2023/07/30 08:55:04;;;;;;;0.10;0.10;;;23.10;75.20;;;;;;5049928;28;20041;-84
2023/07/30 08:57:31;;;;;;;0.17;0.17;;;23.40;74.40;;;;;;5033678;28;20033;-82
2023/07/30 09:00:45;;;;;;;0.45;0.32;;;23.50;74.10;;;;;;5050171;28;20139;-80
2023/07/30 09:03:05;;;;;;;0.15;0.15;;;23.50;73.90;;;;;;5033858;28;20049;-81
2023/07/30 09:05:33;;;;;;;0.57;0.30;;;23.60;73.40;;;;;;5033189;28;20068;-80
2023/07/30 09:07:59;;;;;;;0.40;0.38;;;23.60;73.10;;;;;;5033362;28;20139;-74
2023/07/30 09:10:26;;;;;;;0.25;0.25;;;23.50;73.40;;;;;;5049827;28;20125;-76
2023/07/30 09:12:55;;;;;;;0.13;0.13;;;23.50;73.80;;;;;;5050004;28;20049;-83
2023/07/30 09:15:48;;;;;;;1.23;0.70;;;23.50;73.20;;;;;;5049789;28;20446;-74
2023/07/30 09:18:18;;;;;;;0.20;0.20;;;23.60;72.30;;;;;;5049913;28;20048;-73
2023/07/30 09:20:44;;;;;;;0.60;0.60;;;23.70;72.10;;;;;;5049512;28;20044;-72
2023/07/30 09:23:11;;;;;;;0.70;0.40;;;24.10;71.90;;;;;;5049877;28;20029;-72
2023/07/30 09:25:38;;;;;;;0.20;0.20;;;24.30;70.90;;;;;;5032842;28;20549;-78
2023/07/30 09:28:06;;;;;;;0.45;0.35;;;24.70;69.80;;;;;;5049945;28;20033;-74
2023/07/30 09:30:38;;;;;;;0.22;0.22;;;25.50;69.00;;;;;;5049006;28;20056;-77
2023/07/30 09:33:21;;;;;;;0.30;0.30;;;26.70;64.80;;;;;;5114799;28;20552;-73
2023/07/30 09:35:48;;;;;;;0.20;0.20;;;27.90;61.50;;;;;;5133010;28;20046;-73
2023/07/30 09:41:13;;;;;;;0.35;0.35;;;29.90;56.80;;;;;;5055104;28;20051;-75
2023/07/30 09:43:39;;;;;;;0.70;0.65;;;31.00;55.40;;;;;;5053146;28;20052;-81
2023/07/30 09:46:31;;;;;;;0.70;0.40;;;32.30;52.30;;;;;;5052644;28;20575;-81
2023/07/30 09:48:58;;;;;;;0.47;0.40;;;33.20;50.60;;;;;;5053288;28;20037;-77
2023/07/30 09:51:24;;;;;;;0.30;0.30;;;33.70;47.60;;;;;;5052546;28;20421;-81
2023/07/30 09:53:51;;;;;;;0.32;0.32;;;34.90;43.70;;;;;;5052816;28;20048;-79
2023/07/30 09:56:19;;;;;;;1.17;1.05;;;36.00;37.20;;;;;;5052891;28;20025;-82
2023/07/30 09:58:45;;;;;;;0.80;0.52;;;35.70;38.20;;;;;;5069829;28;20083;-78
2023/07/30 10:01:14;;;;;;;0.43;0.43;;;35.20;39.70;;;;;;5035805;28;20039;-82
2023/07/30 10:04:11;;;;;;;0.40;0.40;;;35.50;37.80;;;;;;5069899;28;20136;-77
2023/07/30 10:07:15;;;;;;;;;;;36.10;37.70;;;;;;5039893;28;20032;-78
2023/07/30 10:09:44;;;;;;;1.05;0.70;;;36.50;35.10;;;;;;5073955;28;19916;-78
2023/07/30 10:12:32;;;;;;;0.68;0.65;;;35.90;35.30;;;;;;5039454;28;20048;-82
2023/07/30 10:14:58;;;;;;;0.40;0.40;;;35.50;36.40;;;;;;5040914;28;20440;-78
2023/07/30 10:17:24;;;;;;;0.50;0.50;;;35.20;36.00;;;;;;5044944;28;20043;-79
2023/07/30 10:20:01;;;;;;;0.63;0.50;;;34.70;35.80;;;;;;5098194;28;20047;-80
2023/07/30 10:22:27;;;;;;;0.45;0.45;;;34.10;37.40;;;;;;5082268;28;20039;-78
2023/07/30 10:25:12;;;;;;;0.30;0.30;;;34.00;37.50;;;;;;5080993;28;20438;-85
2023/07/30 10:30:57;;;;;;;0.30;0.30;;;33.40;36.80;;;;;;5116449;28;20132;-81
2023/07/30 10:33:23;;;;;;;0.38;0.38;;;33.90;36.30;;;;;;5072391;28;20477;-79
2023/07/30 10:35:55;;;;;;;0.98;0.73;;;34.00;36.90;;;;;;5060418;28;20036;-81
2023/07/30 10:38:41;;;;;;;0.65;0.55;;;35.30;35.50;;;;;;5077741;28;20489;-81
2023/07/30 10:41:17;;;;;;;;;;;36.60;33.70;;;;;;5060988;28;20040;-81
2023/07/30 10:43:51;;;;;;;0.60;0.60;;;36.80;32.70;;;;;;5077492;28;20284;-77
2023/07/30 10:46:19;;;;;;;0.38;0.38;;;36.60;32.40;;;;;;5077085;28;20484;-80
2023/07/30 10:48:50;;;;;;;0.40;0.40;;;37.50;31.80;;;;;;5076281;28;20028;-80
2023/07/30 10:51:25;;;;;;;0.40;0.40;;;38.50;30.60;;;;;;5085121;28;20106;-81
2023/07/30 10:53:54;;;;;;;0.38;0.38;;;38.20;30.40;;;;;;5118483;27;20059;-76
2023/07/30 10:56:25;;;;;;;0.50;0.50;;;37.80;30.50;;;;;;5096331;28;20040;-80
2023/07/30 10:58:53;;;;;;;0.75;0.63;;;37.50;31.20;;;;;;5077036;28;20189;-76
2023/07/30 11:01:19;;;;;;;0.40;0.40;;;39.30;30.00;;;;;;5076816;28;20063;-80
2023/07/30 11:03:51;;;;;;;0.75;0.60;;;41.20;28.30;;;;;;5076929;28;20028;-77
2023/07/30 11:06:42;;;;;;;0.60;0.57;;;41.20;25.70;;;;;;5076556;28;20370;-77
2023/07/30 11:09:23;;;;;;;0.50;0.43;;;40.00;27.50;;;;;;5094453;28;20040;-79
2023/07/30 11:11:51;;;;;;;0.50;0.50;;;39.20;27.90;;;;;;5059731;28;20036;-80
2023/07/30 11:14:36;;;;;;;0.63;0.60;;;38.80;29.50;;;;;;5060012;28;20055;-77
2023/07/30 11:17:07;;;;;;;4.30;0.73;;;39.30;29.20;;;;;;5094136;28;20063;-80
2023/07/30 11:19:34;;;;;;;0.43;0.43;;;39.20;28.40;;;;;;5076492;28;20507;-76
2023/07/30 11:22:00;;;;;;;0.40;0.40;;;39.00;28.30;;;;;;5076452;28;20071;-77
2023/07/30 11:24:44;;;;;;;1.20;0.65;;;39.00;29.40;;;;;;5076557;28;20392;-78
2023/07/30 11:27:10;;;;;;;0.50;0.50;;;39.60;28.30;;;;;;5076344;28;20036;-77
2023/07/30 11:30:09;;;;;;;0.38;0.38;;;39.30;28.20;;;;;;5059700;28;20069;-78
2023/07/30 11:32:36;;;;;;;0.60;0.60;;;41.70;26.60;;;;;;5034902;28;20052;-76
2023/07/30 11:35:02;;;;;;;1.55;0.52;;;43.60;25.60;;;;;;5035129;28;20506;-80
2023/07/30 11:37:28;;;;;;;0.60;0.60;;;45.20;23.70;;;;;;5035006;28;20073;-79
2023/07/30 11:40:16;;;;;;;0.93;0.90;;;46.30;21.50;;;;;;5034971;28;20083;-80
2023/07/30 11:42:42;;;;;;;1.13;1.02;;;47.50;21.50;;;;;;5035088;28;20421;-80
2023/07/30 11:45:27;;;;;;;0.68;0.68;;;48.50;20.20;;;;;;5051058;28;20079;-80
2023/07/30 11:47:53;;;;;;;1.20;1.10;;;48.30;19.00;;;;;;5034800;28;20088;-76
2023/07/30 11:50:19;;;;;;;1.05;1.00;;;46.70;20.80;;;;;;5051275;28;20449;-77
2023/07/30 11:52:56;;;;;;;0.98;0.98;;;47.30;20.80;;;;;;5018151;28;20053;-77
2023/07/30 11:55:24;;;;;;;0.80;0.80;;;47.00;20.50;;;;;;5050857;28;20703;-80
2023/07/30 11:57:51;;;;;;;0.80;0.80;;;47.40;20.40;;;;;;5088304;28;20044;-80
2023/07/30 12:00:21;;;;;;;1.13;1.02;;;48.50;17.90;;;;;;5069606;28;20036;-79
2023/07/30 12:02:47;;;;;;;0.80;0.80;;;48.40;18.60;;;;;;5094313;28;20471;-76
2023/07/30 12:05:18;;;;;;;0.82;0.82;;;49.00;19.00;;;;;;5075263;28;20079;-77
2023/07/30 12:07:47;;;;;;;1.17;1.08;;;49.80;17.90;;;;;;5075554;28;20484;-76
2023/07/30 12:10:14;;;;;;;0.98;0.98;;;50.60;17.40;;;;;;5075332;28;20039;-81
2023/07/30 12:12:59;;;;;;;1.45;1.35;;;50.90;16.70;;;;;;5091545;28;20031;-83
2023/07/30 12:15:25;;;;;;;1.30;1.20;;;51.50;16.30;;;;;;5095376;28;20036;-76
2023/07/30 12:17:51;;;;;;;1.30;1.20;;;51.80;15.60;;;;;;5095363;28;20031;-76
2023/07/30 12:20:17;;;;;;;1.55;1.45;;;52.20;16.30;;;;;;5095431;28;20038;-76
2023/07/30 12:22:46;;;;;;;2.70;2.17;;;52.70;15.40;;;;;;5095831;28;20034;-76
2023/07/30 12:25:12;;;;;;;1.70;1.60;;;52.90;14.50;;;;;;5105307;28;20525;-78
2023/07/30 12:28:00;;;;;;;1.50;1.40;;;52.70;14.10;;;;;;5105594;28;20036;-80
2023/07/30 12:30:27;;;;;;;1.67;1.55;;;52.90;14.80;;;;;;5087218;28;20039;-76
2023/07/30 12:33:23;;;;;;;2.30;2.10;;;53.70;14.70;;;;;;5092393;27;20039;-76
2023/07/30 12:35:50;;;;;;;1.98;1.77;;;54.10;14.80;;;;;;4983923;28;20519;-76
2023/07/30 12:38:16;;;;;;;2.15;1.95;;;54.80;13.50;;;;;;4984797;28;20038;-78
2023/07/30 12:40:42;;;;;;;2.00;1.80;;;54.20;13.60;;;;;;4983965;28;20551;-80
2023/07/30 12:43:20;;;;;;;2.75;2.13;;;54.50;14.10;;;;;;4984996;28;20054;-80
2023/07/30 12:45:46;;;;;;;2.42;2.20;;;54.80;13.50;;;;;;4967278;28;20089;-76
2023/07/30 12:48:12;;;;;;;2.60;2.40;;;54.80;14.40;;;;;;4984112;28;20177;-79
2023/07/30 12:50:38;;;;;;;2.53;2.33;;;55.60;13.80;;;;;;4951081;28;20455;-76
2023/07/30 12:53:11;;;;;;;2.60;2.40;;;54.00;14.90;;;;;;4968545;28;20104;-80
2023/07/30 12:55:38;;;;;;;2.58;2.38;;;53.90;13.20;;;;;;4968044;28;20038;-80
2023/07/30 12:58:07;;;;;;;1.98;1.77;;;53.20;14.60;;;;;;4985337;28;20117;-80
2023/07/30 13:00:34;;;;;;;2.10;1.90;;;52.80;14.60;;;;;;4968005;28;20104;-77
2023/07/30 13:03:01;;;;;;;2.00;1.80;;;52.30;14.60;;;;;;4951539;28;20523;-77
2023/07/30 13:05:30;;;;;;;2.03;1.83;;;50.70;15.20;;;;;;4967447;28;20515;-80
2023/07/30 13:08:08;;;;;;;;;;;;;;;;;;;;;
2023/07/30 13:10:35;;;;;;;1.70;1.60;;;49.50;16.30;;;;;;4969297;28;20109;-75
2023/07/30 13:13:01;;;;;;;1.52;1.38;;;49.10;15.90;;;;;;4967907;28;20041;-79
2023/07/30 13:15:28;;;;;;;1.92;1.75;;;48.40;18.10;;;;;;4983714;28;20534;-80
2023/07/30 13:17:55;;;;;;;1.45;1.35;;;47.40;17.90;;;;;;4983677;28;20129;-79
2023/07/30 13:20:21;;;;;;;1.15;1.05;;;46.00;19.40;;;;;;4966675;28;20121;-76
2023/07/30 13:22:47;;;;;;;2.08;1.17;;;44.90;20.10;;;;;;4983580;28;20046;-76
2023/07/30 13:25:16;;;;;;;1.40;1.30;;;46.30;20.00;;;;;;4966864;28;20057;-80
2023/07/30 13:27:42;;;;;;;1.17;1.08;;;46.80;19.30;;;;;;4967356;28;20034;-76
2023/07/30 13:30:08;;;;;;;1.10;1.00;;;47.80;17.80;;;;;;4983618;28;20054;-77
2023/07/30 13:32:37;;;;;;;1.25;1.15;;;47.50;18.20;;;;;;4981984;28;20776;-80
2023/07/30 13:35:05;;;;;;;0.90;0.90;;;48.40;17.60;;;;;;4949556;28;20046;-79
2023/07/30 13:37:31;;;;;;;1.27;1.17;;;47.30;17.90;;;;;;4979942;28;20058;-76
2023/07/30 13:40:00;;;;;;;1.17;1.02;;;47.40;18.30;;;;;;4966681;28;20599;-78
2023/07/30 13:42:26;;;;;;;1.23;1.13;;;48.60;17.60;;;;;;4967255;28;20077;-76
2023/07/30 13:44:52;;;;;;;1.20;1.10;;;49.40;16.50;;;;;;4967723;28;20039;-76
2023/07/30 13:47:27;;;;;;;1.15;1.05;;;49.60;16.70;;;;;;4967714;28;20322;-76
2023/07/30 13:49:54;;;;;;;;;;;50.50;16.50;;;;;;4970053;28;20489;-80
2023/07/30 13:52:20;;;;;;;1.30;1.20;;;51.20;16.20;;;;;;4952851;28;20395;-76